Time;durP1;ratioP1;P1;durP2;ratioP2;P2;SDS_P1;SDS_P2;PMS_P1;PMS_P2;Temp;Humidity;BMP_temperature;BMP_pressure;BME280_temperature;BME280_humidity;BME280_pressure;Samples;Min_cycle;Max_cycle;Signal;HPM_P1;HPM_P2
2023/01/17 00:02:00;;;;;;;1.53;1.03;;;4.10;94.40;;;4.48;65.12;95971.25;4951197;28;119439;-75
2023/01/17 00:10:09;;;;;;;1.97;1.27;;;4.20;94.40;;;4.58;64.29;95975.47;4952358;28;124329;-75
2023/01/17 00:12:35;;;;;;;1.20;1.10;;;4.20;94.30;;;4.60;64.11;95984.16;4950773;28;119106;-75
2023/01/17 00:15:03;;;;;;;2.50;1.00;;;4.20;94.40;;;4.62;64.66;95988.13;4948791;28;118714;-75
2023/01/17 00:17:29;;;;;;;1.60;1.00;;;4.30;94.40;;;4.67;64.17;95986.28;4943569;28;122969;-75
2023/01/17 01:33:40;;;;;;;9.80;1.53;;;4.30;92.90;;;4.64;61.94;96050.66;4966833;28;123674;-76
2023/01/17 01:36:25;;;;;;;2.13;1.20;;;4.30;92.80;;;4.68;62.07;96048.06;4973545;28;123399;-76
2023/01/17 01:38:53;;;;;;;3.10;1.50;;;4.30;92.90;;;4.69;61.74;96055.13;4965280;28;120230;-76
2023/01/17 01:41:19;;;;;;;3.57;1.50;;;4.30;92.90;;;4.73;61.45;96056.03;4975338;28;119146;-77
2023/01/17 01:43:52;;;;;;;1.90;1.37;;;4.40;92.90;;;4.75;61.24;96057.28;4972986;28;124166;-76
2023/01/17 01:46:35;;;;;;;1.30;1.20;;;4.40;92.80;;;4.79;61.81;96050.00;4975038;28;124016;-78
2023/01/17 01:49:05;;;;;;;1.90;1.50;;;4.40;92.80;;;4.83;61.43;96034.47;4963140;28;118101;-75
2023/01/17 01:51:41;;;;;;;5.60;1.47;;;4.40;92.80;;;4.93;61.37;96043.38;4968665;28;118123;-76
2023/01/17 01:54:20;;;;;;;2.50;1.50;;;4.50;92.80;;;5.01;61.10;96047.91;4953958;28;123578;-75
2023/01/17 01:56:48;;;;;;;2.30;1.30;;;4.60;92.90;;;5.05;60.94;96046.06;4968928;28;123648;-75
2023/01/17 01:59:20;;;;;;;1.40;1.30;;;4.60;92.80;;;5.14;61.50;96056.91;4970855;28;118185;-75
2023/01/17 02:01:49;;;;;;;2.20;1.40;;;4.70;92.90;;;5.16;60.61;96049.97;4967976;28;118626;-75
2023/01/17 02:04:17;;;;;;;1.40;1.20;;;4.70;92.80;;;5.18;60.95;96050.38;4965779;28;123711;-75
2023/01/17 02:07:09;;;;;;;1.77;1.50;;;4.70;92.70;;;5.20;60.74;96053.59;4967112;28;124182;-75
2023/01/17 02:09:36;;;;;;;1.30;1.20;;;4.80;92.70;;;5.19;60.78;96043.78;4962686;28;119225;-76
2023/01/17 02:12:05;;;;;;;1.40;1.30;;;4.80;92.70;;;5.22;60.36;96045.84;4977957;28;118231;-75
2023/01/17 02:14:31;;;;;;;1.23;1.10;;;4.80;92.60;;;5.23;60.16;96047.41;4970373;28;123818;-75
2023/01/17 02:17:14;;;;;;;1.23;1.10;;;4.80;92.60;;;5.25;60.83;96050.63;4957405;28;122662;-75
2023/01/17 02:19:59;;;;;;;1.40;1.27;;;4.80;92.60;;;5.25;60.35;96050.63;4964812;28;119146;-75
2023/01/17 02:22:54;;;;;;;1.50;1.20;;;4.80;92.50;;;5.25;61.16;96036.94;4969790;28;117314;-75
2023/01/17 02:25:48;;;;;;;4.00;1.50;;;4.80;92.50;;;5.29;60.27;96035.09;4968909;28;124355;-76
2023/01/17 02:28:40;;;;;;;1.40;1.30;;;4.90;92.50;;;5.31;60.28;96026.53;4970144;28;124191;-75
2023/01/17 02:31:48;;;;;;;1.60;1.40;;;4.90;92.50;;;5.32;60.20;96039.88;4966732;28;120202;-74
2023/01/17 02:34:46;;;;;;;2.60;1.33;;;4.90;92.70;;;5.35;60.82;96045.78;4966257;28;120051;-74
2023/01/17 02:37:25;;;;;;;1.53;1.40;;;4.90;92.80;;;5.36;60.20;96044.66;4950301;28;124148;-75
2023/01/17 02:40:31;;;;;;;1.50;1.40;;;4.90;92.40;;;5.38;59.85;96045.13;4966856;28;123691;-76
2023/01/17 02:43:04;;;;;;;1.50;1.20;;;5.00;92.50;;;5.37;60.57;96046.25;4969731;28;119300;-75
2023/01/17 02:45:31;;;;;;;1.47;1.20;;;5.00;92.50;;;5.38;60.67;96040.44;4969465;28;118797;-74
2023/01/17 02:47:59;;;;;;;1.37;1.27;;;5.10;92.50;;;5.42;60.05;96044.06;4970262;28;123968;-74
2023/01/17 02:50:50;;;;;;;1.20;1.10;;;5.00;92.50;;;5.46;60.12;96047.72;4968757;28;123767;-74
2023/01/17 02:54:07;;;;;;;1.77;1.23;;;5.10;92.50;;;5.48;59.96;96039.97;4969473;28;117253;-75
2023/01/17 02:56:47;;;;;;;4.73;1.60;;;5.10;92.40;;;5.52;60.44;96031.84;4953478;28;118857;-75
2023/01/17 02:59:34;;;;;;;1.27;1.17;;;5.20;92.50;;;5.56;59.85;96032.72;4967019;28;124084;-75
2023/01/17 03:02:57;;;;;;;1.63;1.23;;;5.10;92.50;;;5.59;59.86;96034.78;4966644;28;123676;-76
2023/01/17 03:05:41;;;;;;;1.50;1.30;;;5.10;92.40;;;5.59;59.91;96029.31;4969625;28;118288;-76
2023/01/17 03:08:09;;;;;;;1.63;1.53;;;5.20;92.40;;;5.57;59.48;96031.59;4966292;28;118892;-75
2023/01/17 03:10:36;;;;;;;1.27;1.10;;;5.20;92.30;;;5.57;59.44;96023.38;4967571;28;123859;-75
2023/01/17 03:13:03;;;;;;;1.67;1.20;;;5.50;92.40;;;5.59;59.43;96034.78;4968597;28;122406;-75
2023/01/17 03:15:30;;;;;;;2.70;1.30;;;5.10;92.20;;;5.59;59.62;96029.31;4969758;28;118207;-75
2023/01/17 03:18:04;;;;;;;1.27;1.13;;;5.30;92.20;;;5.61;58.87;96037.94;4966567;28;118719;-75
2023/01/17 03:20:30;;;;;;;1.63;1.20;;;5.10;92.10;;;5.60;59.88;96038.31;4967112;28;124593;-75
2023/01/17 03:22:57;;;;;;;1.30;1.10;;;5.20;92.10;;;5.59;59.53;96033.97;4968702;28;123633;-75
2023/01/17 03:25:23;;;;;;;1.77;1.30;;;5.20;92.10;;;5.59;59.79;96045.75;4964602;28;120187;-75
2023/01/17 03:27:50;;;;;;;2.13;1.40;;;5.20;92.10;;;5.57;59.22;96039.81;4967354;28;119851;-76
2023/01/17 03:30:36;;;;;;;1.67;1.47;;;5.10;92.10;;;5.54;59.58;96051.47;4966796;28;124038;-75
2023/01/17 03:33:03;;;;;;;1.10;1.00;;;5.10;92.10;;;5.49;59.82;96049.75;4928241;28;123730;-75
2023/01/17 03:35:29;;;;;;;1.67;1.10;;;5.10;92.10;;;5.46;59.71;96049.66;4913087;28;119758;-75
2023/01/17 03:37:56;;;;;;;2.70;1.40;;;5.10;92.10;;;5.47;60.08;96056.72;4911621;28;118704;-76
2023/01/17 03:40:22;;;;;;;2.47;1.43;;;5.10;92.10;;;5.47;60.10;96053.97;4926214;28;124034;-75
2023/01/17 03:42:49;;;;;;;3.40;1.20;;;5.10;92.20;;;5.48;59.96;96074.72;4913086;28;122762;-75
2023/01/17 03:45:16;;;;;;;1.63;1.13;;;5.10;92.30;;;5.45;60.47;96065.25;4911764;28;118968;-76
2023/01/17 03:47:43;;;;;;;2.90;1.10;;;5.10;92.30;;;5.38;60.43;96073.28;4912536;28;119405;-75
2023/01/17 03:50:12;;;;;;;1.30;1.20;;;5.00;92.70;;;5.32;61.22;96089.16;4911471;28;123083;-75
2023/01/17 03:52:38;;;;;;;1.30;1.20;;;5.00;92.60;;;5.24;60.91;96092.03;4916429;28;124148;-75
2023/01/17 03:55:06;;;;;;;1.30;1.00;;;4.90;92.70;;;5.15;61.52;96083.94;4902788;28;119219;-76
2023/01/17 03:57:32;;;;;;;1.17;1.07;;;4.80;92.70;;;5.04;60.82;96074.59;4927699;28;118880;-75
2023/01/17 03:59:59;;;;;;;1.40;1.20;;;4.80;93.10;;;4.93;62.16;96077.00;4925445;28;123943;-75
2023/01/17 04:02:25;;;;;;;1.20;0.90;;;4.70;92.90;;;4.84;61.40;96070.84;4917861;28;123678;-75
2023/01/17 04:04:52;;;;;;;1.67;1.10;;;4.50;92.80;;;4.76;62.37;96069.81;4927991;28;119036;-77
2023/01/17 04:07:19;;;;;;;1.50;1.10;;;4.50;93.00;;;4.70;62.34;96062.19;4925990;28;119415;-75
2023/01/17 04:09:45;;;;;;;1.67;1.00;;;5.00;93.30;;;4.65;62.65;96060.50;4923150;28;123917;-75
2023/01/17 04:12:12;;;;;;;1.43;1.33;;;4.40;93.10;;;4.65;62.60;96055.03;4960298;28;123592;-75
2023/01/17 04:14:39;;;;;;;1.57;1.10;;;4.40;93.20;;;4.65;62.40;96057.75;4965636;28;120820;-75
2023/01/17 04:17:11;;;;;;;1.30;1.10;;;4.50;93.30;;;4.66;62.26;96064.81;4969207;28;120271;-75
2023/01/17 04:19:38;;;;;;;1.87;1.20;;;4.20;93.20;;;4.63;62.23;96058.09;4967201;28;123029;-75
2023/01/17 04:22:04;;;;;;;2.00;1.03;;;4.30;93.30;;;4.63;62.81;96049.09;4964633;28;123814;-75
2023/01/17 04:24:31;;;;;;;1.20;1.10;;;4.30;93.30;;;4.67;62.65;96057.41;4967039;28;119501;-75
2023/01/17 04:26:57;;;;;;;1.20;1.10;;;4.30;93.40;;;4.69;62.55;96055.91;4966173;28;119018;-76
2023/01/17 04:29:24;;;;;;;1.10;1.00;;;4.30;93.40;;;4.75;62.56;96059.22;4966304;28;124020;-76
2023/01/17 04:31:50;;;;;;;1.40;1.13;;;4.40;93.50;;;4.76;62.58;96047.94;4965179;28;123877;-75
2023/01/17 04:34:17;;;;;;;2.23;1.30;;;4.40;93.40;;;4.82;63.23;96060.25;4966172;28;119285;-76
2023/01/17 04:36:44;;;;;;;1.57;1.20;;;5.40;93.90;;;4.87;62.49;96053.75;4967607;28;118399;-75
2023/01/17 04:39:11;;;;;;;1.30;1.20;;;4.40;93.50;;;4.94;62.72;96061.38;4964056;28;123952;-75
2023/01/17 04:41:38;;;;;;;1.20;1.10;;;4.50;93.50;;;4.99;62.58;96059.19;4968202;28;122718;-75
2023/01/17 04:44:04;;;;;;;1.43;1.33;;;4.60;93.60;;;5.05;62.59;96066.06;4968871;28;119887;-75
2023/01/17 04:46:31;;;;;;;1.30;1.17;;;4.60;93.60;;;5.09;62.11;96069.69;4968732;28;118837;-75
2023/01/17 04:48:59;;;;;;;1.20;1.10;;;4.60;93.60;;;5.13;62.57;96064.34;4968304;28;98912;-75
2023/01/17 04:51:25;;;;;;;2.60;1.30;;;4.70;93.60;;;5.15;62.68;96078.44;4964265;28;123831;-75
2023/01/17 04:53:52;;;;;;;1.27;1.10;;;5.00;93.70;;;5.18;62.18;96085.19;4965820;28;119256;-76
2023/01/17 04:56:19;;;;;;;1.93;1.30;;;4.70;93.60;;;5.22;62.95;96086.91;4966509;28;118945;-75
2023/01/17 04:58:46;;;;;;;2.80;1.27;;;4.80;93.70;;;5.22;62.25;96078.69;4965316;28;123979;-76
2023/01/17 05:01:13;;;;;;;1.53;1.20;;;4.70;93.60;;;5.24;62.32;96076.41;4965129;28;123691;-76
2023/01/17 05:03:39;;;;;;;1.50;1.40;;;4.80;93.60;;;5.27;62.52;96080.38;4965697;28;120021;-75
2023/01/17 05:06:06;;;;;;;3.23;1.30;;;4.80;93.60;;;5.26;62.01;96070.56;4965910;28;119583;-76
2023/01/17 05:08:32;;;;;;;2.10;1.40;;;4.90;93.60;;;5.27;62.25;96072.19;4966945;28;124676;-76
2023/01/17 05:10:59;;;;;;;1.70;1.30;;;4.80;93.60;;;5.30;61.65;96072.28;4967043;28;124438;-75
2023/01/17 05:13:25;;;;;;;2.30;1.67;;;4.80;93.50;;;5.33;62.32;96073.53;4968210;28;118541;-76
2023/01/17 05:15:52;;;;;;;2.37;1.50;;;4.90;93.60;;;5.35;62.67;96075.91;4965385;28;118819;-75
2023/01/17 05:18:18;;;;;;;2.73;2.20;;;4.90;93.80;;;5.35;62.44;96070.44;4964244;28;124501;-75
2023/01/17 05:20:45;;;;;;;3.00;1.40;;;5.00;93.50;;;5.34;62.13;96068.84;4965404;28;123851;-75
2023/01/17 05:23:12;;;;;;;1.40;1.30;;;4.90;93.50;;;5.36;61.72;96074.78;4964691;28;119341;-75
2023/01/17 05:25:43;;;;;;;1.50;1.40;;;4.90;93.50;;;5.37;62.13;96062.69;4951157;28;118095;-75
2023/01/17 05:28:12;;;;;;;1.93;1.37;;;4.90;93.50;;;5.37;62.35;96055.25;4963625;28;124053;-75
2023/01/17 05:30:38;;;;;;;1.33;1.23;;;5.30;93.80;;;5.40;62.51;96053.75;4963317;28;124172;-75
2023/01/17 05:33:05;;;;;;;2.70;1.40;;;4.90;93.60;;;5.38;62.28;96050.59;4966432;28;118882;-76
2023/01/17 05:35:31;;;;;;;1.63;1.33;;;4.90;93.60;;;5.40;61.91;96053.75;4964421;28;118890;-75
2023/01/17 05:37:58;;;;;;;3.10;1.37;;;4.90;93.60;;;5.41;62.38;96052.63;4967482;28;124407;-76
2023/01/17 05:40:27;;;;;;;2.33;1.40;;;5.00;93.60;;;5.39;62.22;96052.97;4966694;28;122373;-75
2023/01/17 05:42:57;;;;;;;2.80;1.60;;;5.00;93.50;;;5.34;61.93;96055.94;4963765;28;119316;-75
2023/01/17 05:45:27;;;;;;;2.70;1.73;;;4.90;93.50;;;5.32;61.94;96059.03;4964737;28;118835;-75
2023/01/17 05:47:56;;;;;;;3.73;1.67;;;4.90;93.40;;;5.27;61.76;96059.28;4968783;28;123979;-76
2023/01/17 05:50:30;;;;;;;4.23;1.77;;;4.90;93.40;;;5.29;62.18;96062.47;4954042;28;122967;-75
2023/01/17 05:53:00;;;;;;;1.87;1.37;;;4.90;93.40;;;5.29;62.38;96048.78;4953307;28;119563;-75
2023/01/17 05:55:28;;;;;;;1.47;1.27;;;4.80;93.30;;;5.29;61.29;96045.22;4971118;28;120321;-75
2023/01/17 05:57:55;;;;;;;1.77;1.33;;;4.90;93.30;;;5.32;61.36;96039.09;4966833;28;123669;-76
2023/01/17 06:00:23;;;;;;;2.90;1.30;;;5.00;93.30;;;5.35;60.99;96038.41;4969176;28;123824;-75
2023/01/17 06:02:53;;;;;;;2.20;1.57;;;4.90;93.20;;;5.37;61.18;96029.81;4970692;28;119378;-75
2023/01/17 06:05:21;;;;;;;1.60;1.20;;;5.60;93.40;;;5.36;61.55;96033.72;4971920;28;119061;-76
2023/01/17 06:07:48;;;;;;;2.00;1.53;;;4.90;93.10;;;5.38;61.18;96024.00;4972628;28;123047;-77
2023/01/17 06:10:18;;;;;;;6.20;1.83;;;4.90;93.10;;;5.39;60.81;96022.06;4969700;28;124095;-76
2023/01/17 06:12:46;;;;;;;1.43;1.30;;;4.90;93.00;;;5.39;61.11;96013.84;4971673;28;119675;-76
2023/01/17 06:15:16;;;;;;;2.60;1.60;;;4.90;92.90;;;5.39;61.07;96011.13;4969910;28;118149;-76
2023/01/17 06:17:44;;;;;;;1.40;1.27;;;4.90;92.90;;;5.35;60.72;96004.72;4968105;28;124340;-75
2023/01/17 06:20:11;;;;;;;1.63;1.30;;;4.90;92.90;;;5.32;60.72;96007.03;4968189;28;125203;-75
2023/01/17 06:22:37;;;;;;;2.43;1.50;;;4.90;92.80;;;5.30;61.14;96000.31;4970658;28;121122;-75
2023/01/17 06:25:06;;;;;;;2.93;2.00;;;4.90;92.80;;;5.28;60.81;96006.13;4967969;28;118924;-75
2023/01/17 06:27:32;;;;;;;2.80;1.53;;;4.90;92.90;;;5.25;61.20;95992.34;4970794;28;124040;-75
2023/01/17 06:29:59;;;;;;;2.73;1.60;;;4.90;92.90;;;5.25;60.74;95995.06;4968071;28;123746;-75
2023/01/17 06:32:25;;;;;;;3.70;1.50;;;4.80;92.80;;;5.24;60.97;95997.03;4968505;28;118975;-76
2023/01/17 06:34:52;;;;;;;2.87;1.83;;;4.80;92.70;;;5.26;60.71;95988.44;4967695;28;118930;-76
2023/01/17 06:37:18;;;;;;;2.20;1.70;;;5.10;92.90;;;5.26;60.52;95991.97;4967763;28;123229;-75
2023/01/17 06:39:45;;;;;;;2.67;1.57;;;4.90;92.80;;;5.25;60.91;95990.41;4968054;28;123861;-75
2023/01/17 06:42:12;;;;;;;2.87;1.60;;;4.80;92.70;;;5.26;60.65;95996.66;4967432;28;120264;-76
2023/01/17 06:44:39;;;;;;;1.93;1.60;;;4.80;92.60;;;5.24;60.56;95999.75;4969519;28;118661;-76
2023/01/17 06:47:05;;;;;;;2.07;1.63;;;4.80;92.60;;;5.25;60.48;96006.81;4968933;28;123799;-76
2023/01/17 06:49:33;;;;;;;2.93;1.70;;;4.80;92.50;;;5.26;60.34;96004.88;4971306;28;123519;-76
2023/01/17 06:52:01;;;;;;;3.00;2.17;;;5.20;92.70;;;5.26;60.46;96002.94;4969785;28;118615;-76
2023/01/17 06:54:27;;;;;;;3.70;1.90;;;4.80;92.50;;;5.28;60.79;96000.66;4984192;28;119075;-77
2023/01/17 06:56:54;;;;;;;1.70;1.60;;;4.80;92.50;;;5.30;60.16;96005.78;4967726;28;124046;-76
2023/01/17 06:59:20;;;;;;;3.40;2.10;;;4.90;92.50;;;5.31;59.74;96010.91;4950427;28;123774;-75
2023/01/17 07:01:46;;;;;;;2.43;1.70;;;4.90;92.50;;;5.32;60.44;96004.28;4964381;28;119601;-75
2023/01/17 07:04:13;;;;;;;3.50;1.57;;;4.80;92.40;;;5.32;59.47;96007.03;4962197;28;118663;-75
2023/01/17 07:06:39;;;;;;;3.40;1.60;;;4.90;92.40;;;5.33;59.68;96007.81;4967731;28;124213;-76
2023/01/17 07:09:06;;;;;;;3.10;1.60;;;4.80;92.30;;;5.35;59.94;95999.25;4967706;28;124198;-75
2023/01/17 07:11:34;;;;;;;3.30;2.00;;;5.00;92.40;;;5.36;59.85;95992.66;4966777;28;119495;-76
2023/01/17 07:14:01;;;;;;;3.67;2.00;;;4.90;92.40;;;5.38;59.83;95990.38;4967723;28;119031;-75
2023/01/17 07:16:27;;;;;;;2.50;1.50;;;5.20;92.50;;;5.39;60.32;95990.00;4967415;28;124004;-76
2023/01/17 07:18:55;;;;;;;3.50;1.80;;;4.90;92.50;;;5.44;60.35;95997.19;4967695;28;123844;-75
2023/01/17 07:21:23;;;;;;;2.30;1.60;;;4.90;92.50;;;5.47;60.57;95996.47;4967713;28;119361;-76
2023/01/17 07:23:50;;;;;;;2.67;1.60;;;4.90;92.50;;;5.48;59.76;95987.09;4967371;28;118899;-75
2023/01/17 07:26:17;;;;;;;4.30;2.20;;;5.00;92.50;;;5.53;60.33;95984.13;4968309;28;123777;-76
2023/01/17 07:28:43;;;;;;;2.97;2.03;;;5.40;92.70;;;5.58;60.07;95988.56;4967470;28;124430;-76
2023/01/17 07:31:10;;;;;;;3.13;2.00;;;5.00;92.50;;;5.61;60.02;95979.66;4968412;28;119574;-78
2023/01/17 07:33:36;;;;;;;3.43;2.20;;;5.20;92.50;;;5.63;59.43;95972.66;4965691;28;119941;-76
2023/01/17 07:36:06;;;;;;;2.37;1.50;;;5.60;92.50;;;5.64;59.45;95974.28;4966898;28;123905;-75
2023/01/17 07:38:34;;;;;;;5.73;1.40;;;5.10;92.30;;;5.66;58.92;95965.69;4969676;28;123865;-76
2023/01/17 07:41:01;;;;;;;1.90;1.60;;;5.10;92.20;;;5.68;59.43;95961.47;4965510;28;119386;-76
2023/01/17 07:43:28;;;;;;;2.27;1.90;;;5.20;92.20;;;5.69;59.18;95960.31;4967950;28;118914;-75
2023/01/17 07:45:55;;;;;;;4.27;2.13;;;5.20;92.10;;;5.70;59.46;95952.91;4983298;28;123989;-76
2023/01/17 07:48:23;;;;;;;1.90;1.70;;;5.20;92.00;;;5.73;58.43;95960.41;4967310;28;124215;-75
2023/01/17 07:50:57;;;;;;;4.43;2.10;;;5.20;91.90;;;5.76;59.07;95955.03;4966271;28;119556;-75
2023/01/17 07:53:26;;;;;;;3.20;1.97;;;5.30;91.90;;;5.75;58.71;95958.91;4966155;28;118805;-75
2023/01/17 07:55:53;;;;;;;3.10;2.13;;;5.30;91.80;;;5.76;58.37;95955.03;4967710;28;122879;-75
2023/01/17 07:58:20;;;;;;;3.43;2.17;;;5.20;91.70;;;5.79;58.59;95952.75;4967089;28;123851;-76
2023/01/17 08:00:47;;;;;;;2.10;1.90;;;5.30;91.70;;;5.78;58.42;95960.16;4965201;28;119032;-75
2023/01/17 08:03:16;;;;;;;3.13;2.03;;;5.30;91.70;;;5.77;58.00;95958.56;4966688;28;119023;-76
2023/01/17 08:05:52;;;;;;;3.60;2.17;;;5.30;91.60;;;5.78;57.94;95962.09;4968764;28;123267;-77
2023/01/17 08:08:20;;;;;;;3.70;2.43;;;5.30;91.60;;;5.75;57.77;95952.66;4969462;28;122811;-75
2023/01/17 08:10:48;;;;;;;3.93;2.37;;;5.30;91.60;;;5.73;57.97;95957.69;4965260;28;118687;-75
2023/01/17 08:13:14;;;;;;;3.80;2.37;;;5.30;91.60;;;5.73;58.06;95954.94;4966867;28;119057;-76
2023/01/17 08:15:41;;;;;;;2.83;1.70;;;5.40;91.60;;;5.74;58.19;95960.06;4965948;28;123840;-75
2023/01/17 08:18:07;;;;;;;3.00;1.93;;;5.30;91.50;;;5.76;58.27;95960.50;4966414;28;123907;-76
2023/01/17 08:20:34;;;;;;;2.80;1.87;;;5.30;91.60;;;5.78;58.72;95959.34;4965299;28;120043;-76
2023/01/17 08:23:03;;;;;;;3.67;2.03;;;5.30;91.50;;;5.80;58.13;95954.31;4966928;28;119742;-76
2023/01/17 08:25:31;;;;;;;2.83;2.33;;;5.30;91.50;;;5.81;57.96;95955.94;4967235;28;124404;-74
2023/01/17 08:27:58;;;;;;;2.07;1.40;;;5.30;91.50;;;5.82;58.41;95954.78;4958624;28;123808;-74
2023/01/17 08:30:25;;;;;;;3.57;1.63;;;6.10;91.70;;;5.86;57.57;95952.94;4952633;28;119394;-74
2023/01/17 08:32:52;;;;;;;3.40;2.10;;;5.30;91.40;;;5.91;57.90;95960.88;4948754;28;118814;-75
2023/01/17 08:35:20;;;;;;;3.50;2.23;;;5.40;91.40;;;5.95;57.93;95951.63;4949770;28;124407;-74
2023/01/17 08:37:47;;;;;;;1.87;1.67;;;5.40;91.40;;;5.99;57.93;95951.72;4933330;28;123783;-74
2023/01/17 08:40:16;;;;;;;2.40;2.20;;;5.40;91.30;;;5.99;57.57;95954.44;4953973;28;118863;-74
2023/01/17 08:42:43;;;;;;;2.77;1.87;;;5.50;91.30;;;6.02;57.48;95961.16;4951626;28;118989;-74
2023/01/17 08:45:11;;;;;;;4.83;1.90;;;5.50;91.30;;;6.05;57.29;95957.75;4953291;28;123983;-74
2023/01/17 08:47:37;;;;;;;3.30;1.87;;;5.50;91.20;;;6.07;57.21;95956.25;4950458;28;123291;-74
2023/01/17 08:50:05;;;;;;;2.60;1.83;;;5.50;91.40;;;6.11;56.81;95946.16;4951793;28;119338;-75
2023/01/17 08:52:32;;;;;;;5.27;2.17;;;5.60;91.10;;;6.15;56.78;95948.97;4950886;28;118111;-76
2023/01/17 08:54:59;;;;;;;3.03;1.70;;;5.60;91.10;;;6.18;57.39;95951.81;4934044;28;123252;-74
2023/01/17 08:57:25;;;;;;;1.87;1.67;;;5.60;91.00;;;6.23;57.01;95945.25;4952728;28;123914;-74
2023/01/17 08:59:52;;;;;;;2.13;1.90;;;5.70;91.00;;;6.27;56.39;95934.41;4952132;28;119318;-76
2023/01/17 09:02:19;;;;;;;2.17;1.90;;;5.70;90.90;;;6.30;56.87;95937.22;4949360;28;119049;-74
2023/01/17 09:04:49;;;;;;;3.97;1.77;;;5.70;90.80;;;6.33;56.56;95939.25;4943805;28;123964;-74
2023/01/17 09:07:19;;;;;;;6.40;3.20;;;5.80;90.70;;;6.36;56.36;95940.47;4933958;28;122428;-74
2023/01/17 09:09:45;;;;;;;3.17;2.00;;;5.80;90.70;;;6.38;56.07;95932.72;4946122;28;120718;-74
2023/01/17 09:12:12;;;;;;;3.87;2.20;;;5.80;90.60;;;6.40;56.26;95933.94;4961314;28;119872;-74
2023/01/17 09:14:38;;;;;;;4.13;2.00;;;5.90;90.60;;;6.44;55.74;95933.22;4947882;28;123534;-74
2023/01/17 09:17:05;;;;;;;6.40;2.30;;;6.20;90.60;;;6.45;56.10;95930.13;4942977;28;123705;-75
2023/01/17 09:19:32;;;;;;;2.97;1.93;;;5.90;90.50;;;6.50;55.90;95935.34;4950159;28;119923;-74
2023/01/17 09:21:58;;;;;;;7.40;2.40;;;5.90;90.40;;;6.55;55.60;95937.00;4947892;28;118694;-75
2023/01/17 09:24:25;;;;;;;3.60;2.20;;;6.00;90.40;;;6.54;55.58;95930.72;4952490;28;124427;-74
2023/01/17 09:26:51;;;;;;;3.83;1.70;;;6.20;90.40;;;6.53;55.55;95928.34;4965622;28;123736;-74
2023/01/17 09:29:18;;;;;;;3.63;2.17;;;6.00;90.40;;;6.55;55.73;95926.03;4956087;28;119222;-74
2023/01/17 09:31:47;;;;;;;3.10;2.40;;;6.00;90.30;;;6.57;55.51;95921.78;4954796;28;118932;-75
2023/01/17 09:34:14;;;;;;;3.03;2.10;;;6.00;90.30;;;6.61;55.62;95913.66;4954241;28;123706;-75
2023/01/17 09:36:41;;;;;;;2.20;1.80;;;6.00;90.20;;;6.64;55.44;95901.97;4951003;28;123859;-75
2023/01/17 09:39:10;;;;;;;2.40;1.40;;;6.10;90.10;;;6.66;55.21;95893.34;4948373;28;119522;-75
2023/01/17 09:42:02;;;;;;;3.97;2.27;;;6.30;90.00;;;6.61;53.92;95900.72;4951979;28;119118;-76
2023/01/17 09:44:45;;;;;;;3.80;2.20;;;6.00;88.90;;;6.55;54.11;95896.66;4954958;28;123300;-75
2023/01/17 09:47:33;;;;;;;4.40;2.03;;;6.00;89.40;;;6.56;54.22;95903.75;4948389;28;124255;-75
2023/01/17 09:50:07;;;;;;;3.00;1.90;;;6.00;89.60;;;6.54;55.15;95903.31;4957260;28;119397;-75
2023/01/17 09:52:34;;;;;;;4.33;2.27;;;6.00;89.50;;;6.53;54.97;95898.16;4951213;28;119522;-76
2023/01/17 09:55:00;;;;;;;2.70;1.70;;;6.00;89.30;;;6.54;55.02;95897.03;4951798;28;123911;-75
2023/01/17 09:57:39;;;;;;;2.97;1.90;;;6.00;89.40;;;6.61;54.87;95906.22;4956196;28;123909;-75
2023/01/17 10:00:41;;;;;;;3.67;2.20;;;6.00;89.40;;;6.67;54.49;95895.75;4953571;28;120086;-75
2023/01/17 10:03:47;;;;;;;4.03;2.23;;;6.10;89.40;;;6.76;54.66;95893.59;4952121;28;118718;-76
2023/01/17 10:06:32;;;;;;;1.97;1.67;;;6.20;89.40;;;6.83;53.67;95895.72;4957059;28;123992;-75
2023/01/17 10:09:44;;;;;;;5.80;2.07;;;6.30;89.10;;;6.88;53.25;95887.19;4951504;28;123857;-76
2023/01/17 10:12:41;;;;;;;3.73;2.50;;;6.30;87.80;;;6.92;53.14;95890.00;4935940;28;118517;-75
2023/01/17 10:15:16;;;;;;;3.13;2.13;;;6.30;87.70;;;6.90;51.71;95890.34;4949898;28;118838;-75
2023/01/17 10:18:15;;;;;;;6.20;2.23;;;6.30;86.40;;;6.90;51.65;95884.88;4947123;28;124102;-75
2023/01/17 10:21:00;;;;;;;4.10;2.10;;;6.20;85.80;;;6.96;52.56;95886.19;4962126;28;123513;-76
2023/01/17 10:23:45;;;;;;;2.93;2.07;;;6.30;86.90;;;7.06;52.85;95880.09;4954477;28;119793;-76
2023/01/17 10:26:25;;;;;;;3.80;1.63;;;6.40;87.40;;;7.22;54.90;95882.75;4954405;28;118221;-76
2023/01/17 10:28:59;;;;;;;5.30;3.87;;;6.60;89.70;;;7.37;52.93;95880.31;4965677;28;124432;-75
2023/01/17 10:31:32;;;;;;;5.50;2.40;;;6.70;88.60;;;7.46;51.70;95878.91;4962972;28;123823;-75
2023/01/17 10:34:18;;;;;;;4.80;2.07;;;6.80;87.20;;;7.56;51.37;95879.50;4949226;28;119320;-75
2023/01/17 10:36:54;;;;;;;3.73;1.70;;;6.80;86.50;;;7.63;50.53;95877.66;4963920;28;118492;-75
2023/01/17 10:39:26;;;;;;;6.13;2.40;;;6.90;85.50;;;7.67;49.60;95867.50;4952762;28;123711;-75
2023/01/17 10:42:22;;;;;;;3.67;2.23;;;7.00;83.90;;;7.75;49.83;95865.69;4961105;28;123233;-76
2023/01/17 10:45:05;;;;;;;5.60;2.10;;;7.10;84.80;;;7.83;49.03;95852.88;4954886;28;119258;-75
2023/01/17 10:47:36;;;;;;;2.53;1.87;;;7.10;82.40;;;7.84;47.38;95857.19;4953160;28;119216;-75
2023/01/17 10:50:59;;;;;;;3.07;2.10;;;7.10;81.40;;;7.91;48.73;95855.38;4960420;28;124034;-76
2023/01/17 10:53:44;;;;;;;6.03;2.10;;;7.30;82.70;;;8.05;48.98;95854.00;4964087;28;124043;-76
2023/01/17 10:56:14;;;;;;;2.80;2.10;;;7.40;82.90;;;8.12;48.11;95841.19;4963109;28;120673;-76
2023/01/17 10:58:41;;;;;;;3.37;2.00;;;7.50;81.80;;;8.22;47.04;95842.50;4970458;28;121040;-77
2023/01/17 11:01:19;;;;;;;3.00;1.80;;;7.50;80.50;;;8.30;47.43;95844.19;4959935;28;123259;-77
2023/01/17 11:03:50;;;;;;;5.37;2.07;;;7.60;81.00;;;8.42;47.39;95836.94;4973462;28;122753;-77
2023/01/17 11:06:23;;;;;;;5.77;1.63;;;7.70;81.20;;;8.53;46.74;95829.59;4964745;28;119324;-75
2023/01/17 11:08:59;;;;;;;3.60;1.90;;;7.80;80.50;;;8.64;46.34;95833.28;4967490;28;118594;-76
2023/01/17 11:11:30;;;;;;;2.67;1.67;;;7.90;79.70;;;8.76;46.19;95835.81;4957341;28;123769;-75
2023/01/17 11:14:19;;;;;;;3.50;2.50;;;8.00;79.70;;;8.89;45.28;95838.31;4964581;28;123870;-76
2023/01/17 11:16:59;;;;;;;2.73;1.70;;;8.10;78.10;;;9.01;45.62;95838.09;4952461;28;119335;-75
2023/01/17 11:19:37;;;;;;;1.50;1.10;;;8.30;78.90;;;9.15;44.42;95843.75;4935784;28;118462;-76
2023/01/17 11:22:06;;;;;;;1.80;1.20;;;8.40;76.90;;;9.26;43.79;95828.13;4960457;28;124425;-75
2023/01/17 11:24:48;;;;;;;2.03;1.30;;;8.50;76.80;;;9.47;44.42;95810.25;4967902;28;123674;-76
2023/01/17 11:27:31;;;;;;;3.13;1.70;;;8.70;77.40;;;9.69;43.73;95795.50;4963917;28;119663;-75
2023/01/17 11:30:05;;;;;;;2.27;1.60;;;8.90;76.10;;;9.84;42.58;95790.91;4967209;28;119240;-77
2023/01/17 11:32:33;;;;;;;3.20;1.50;;;9.00;74.90;;;9.95;42.26;95786.25;4956319;28;123632;-75
2023/01/17 11:35:17;;;;;;;5.67;1.73;;;9.20;74.30;;;10.04;39.97;95777.66;4960370;28;123633;-75
2023/01/17 11:38:21;;;;;;;2.50;1.70;;;9.30;70.90;;;10.15;40.75;95789.56;4968659;28;119756;-76
2023/01/17 11:40:49;;;;;;;2.33;1.70;;;9.40;71.70;;;10.25;40.79;95792.78;4965011;28;119026;-75
2023/01/17 11:43:26;;;;;;;5.17;1.80;;;9.50;71.80;;;10.45;40.51;95798.81;4962895;28;124195;-77
2023/01/17 11:46:00;;;;;;;2.10;1.50;;;9.60;72.00;;;10.62;39.84;95787.09;4965980;28;124318;-76
2023/01/17 11:48:37;;;;;;;3.03;1.47;;;9.80;70.70;;;10.78;39.38;95775.75;4952490;28;120688;-75
2023/01/17 11:51:28;;;;;;;5.00;1.40;;;10.00;69.00;;;10.99;38.74;95769.50;4959116;28;120145;-75
2023/01/17 11:54:16;;;;;;;3.70;1.73;;;10.10;69.10;;;11.23;39.21;95767.97;4948749;28;123718;-75
2023/01/17 11:56:45;;;;;;;2.80;1.40;;;10.30;69.30;;;11.43;38.81;95760.13;4963976;28;123852;-75
2023/01/17 11:59:32;;;;;;;3.77;2.60;;;10.60;69.20;;;11.64;39.03;95751.88;4953743;28;119372;-76
2023/01/17 12:03:01;;;;;;;4.70;3.10;;;10.80;68.90;;;11.90;38.01;95744.38;4966161;28;119288;-76
2023/01/17 12:05:41;;;;;;;3.73;1.73;;;11.00;66.80;;;12.13;37.62;95730.91;4966261;28;124171;-76
2023/01/17 12:08:25;;;;;;;2.13;1.60;;;11.30;67.10;;;12.37;36.98;95715.44;4959060;28;124118;-74